sensor_id;sensor_type;location;lat;lon;timestamp;pressure;altitude;pressure_sealevel;temperature;humidity
12471;BME280;36499;46.484;13.832;2023-12-07T00:00:41;92877.00;;;-2.77;100.00
12471;BME280;36499;46.484;13.832;2023-12-07T00:03:08;92877.78;;;-2.88;100.00
12471;BME280;36499;46.484;13.832;2023-12-07T00:05:35;92886.44;;;-2.90;100.00
12471;BME280;36499;46.484;13.832;2023-12-07T00:08:04;92880.53;;;-2.91;100.00
12471;BME280;36499;46.484;13.832;2023-12-07T00:10:30;92885.03;;;-2.94;100.00
12471;BME280;36499;46.484;13.832;2023-12-07T00:12:57;92884.81;;;-2.91;100.00
12471;BME280;36499;46.484;13.832;2023-12-07T00:15:24;92887.25;;;-2.90;100.00
12471;BME280;36499;46.484;13.832;2023-12-07T00:17:51;92885.28;;;-2.86;100.00
12471;BME280;36499;46.484;13.832;2023-12-07T00:20:18;92893.47;;;-2.94;100.00
12471;BME280;36499;46.484;13.832;2023-12-07T00:22:45;92894.88;;;-2.90;100.00
12471;BME280;36499;46.484;13.832;2023-12-07T00:25:13;92898.66;;;-2.95;100.00
12471;BME280;36499;46.484;13.832;2023-12-07T00:27:41;92905.16;;;-2.91;100.00
12471;BME280;36499;46.484;13.832;2023-12-07T00:30:08;92905.63;;;-2.86;100.00
12471;BME280;36499;46.484;13.832;2023-12-07T00:32:35;92903.91;;;-2.86;100.00
12471;BME280;36499;46.484;13.832;2023-12-07T00:35:04;92902.22;;;-2.74;100.00
12471;BME280;36499;46.484;13.832;2023-12-07T00:37:30;92905.88;;;-2.78;100.00
12471;BME280;36499;46.484;13.832;2023-12-07T00:39:57;92908.38;;;-2.89;100.00
12471;BME280;36499;46.484;13.832;2023-12-07T00:42:25;92904.00;;;-2.87;100.00
12471;BME280;36499;46.484;13.832;2023-12-07T00:44:52;92900.69;;;-3.00;100.00
12471;BME280;36499;46.484;13.832;2023-12-07T00:47:20;92898.66;;;-2.95;100.00
12471;BME280;36499;46.484;13.832;2023-12-07T00:49:47;92906.16;;;-2.94;100.00
12471;BME280;36499;46.484;13.832;2023-12-07T00:52:14;92904.38;;;-3.04;100.00
12471;BME280;36499;46.484;13.832;2023-12-07T00:54:41;92899.56;;;-2.96;100.00
12471;BME280;36499;46.484;13.832;2023-12-07T00:57:08;92904.81;;;-2.87;100.00
12471;BME280;36499;46.484;13.832;2023-12-07T00:59:36;92898.25;;;-2.78;100.00
12471;BME280;36499;46.484;13.832;2023-12-07T01:02:03;92901.13;;;-2.83;100.00
12471;BME280;36499;46.484;13.832;2023-12-07T01:04:30;92908.28;;;-2.88;100.00
12471;BME280;36499;46.484;13.832;2023-12-07T01:06:57;92909.91;;;-2.87;100.00
12471;BME280;36499;46.484;13.832;2023-12-07T01:09:24;92912.16;;;-2.95;100.00
12471;BME280;36499;46.484;13.832;2023-12-07T01:11:51;92907.78;;;-2.93;100.00
12471;BME280;36499;46.484;13.832;2023-12-07T01:14:18;92915.09;;;-2.88;100.00
12471;BME280;36499;46.484;13.832;2023-12-07T01:16:47;92917.03;;;-2.92;100.00
12471;BME280;36499;46.484;13.832;2023-12-07T01:19:14;92910.81;;;-2.88;100.00
12471;BME280;36499;46.484;13.832;2023-12-07T01:21:41;92916.38;;;-2.83;100.00
12471;BME280;36499;46.484;13.832;2023-12-07T01:24:08;92921.34;;;-2.81;100.00
12471;BME280;36499;46.484;13.832;2023-12-07T01:26:34;92916.06;;;-2.78;100.00
12471;BME280;36499;46.484;13.832;2023-12-07T01:29:01;92924.50;;;-2.77;100.00
12471;BME280;36499;46.484;13.832;2023-12-07T01:31:28;92926.34;;;-2.79;100.00
12471;BME280;36499;46.484;13.832;2023-12-07T01:33:56;92928.34;;;-2.72;100.00
12471;BME280;36499;46.484;13.832;2023-12-07T01:36:23;92926.72;;;-2.73;100.00
12471;BME280;36499;46.484;13.832;2023-12-07T01:38:50;92923.84;;;-2.68;100.00
12471;BME280;36499;46.484;13.832;2023-12-07T01:41:17;92929.75;;;-2.68;100.00
12471;BME280;36499;46.484;13.832;2023-12-07T01:43:45;92926.41;;;-2.68;100.00
12471;BME280;36499;46.484;13.832;2023-12-07T01:46:12;92923.38;;;-2.73;100.00
12471;BME280;36499;46.484;13.832;2023-12-07T01:48:40;92928.44;;;-2.73;100.00
12471;BME280;36499;46.484;13.832;2023-12-07T01:51:09;92932.09;;;-2.65;100.00
12471;BME280;36499;46.484;13.832;2023-12-07T01:53:38;92933.72;;;-2.64;100.00
12471;BME280;36499;46.484;13.832;2023-12-07T01:56:07;92923.44;;;-2.62;100.00
12471;BME280;36499;46.484;13.832;2023-12-07T01:58:35;92930.75;;;-2.47;100.00
12471;BME280;36499;46.484;13.832;2023-12-07T02:01:02;92928.81;;;-2.43;100.00
12471;BME280;36499;46.484;13.832;2023-12-07T02:03:31;92921.75;;;-2.51;100.00
12471;BME280;36499;46.484;13.832;2023-12-07T02:05:58;92937.97;;;-2.64;100.00
12471;BME280;36499;46.484;13.832;2023-12-07T02:08:27;92936.41;;;-2.54;100.00
12471;BME280;36499;46.484;13.832;2023-12-07T02:10:55;92930.69;;;-2.69;100.00
12471;BME280;36499;46.484;13.832;2023-12-07T02:13:22;92935.97;;;-2.72;100.00
12471;BME280;36499;46.484;13.832;2023-12-07T02:15:49;92934.13;;;-2.70;100.00
12471;BME280;36499;46.484;13.832;2023-12-07T02:18:24;92930.72;;;-2.58;100.00
12471;BME280;36499;46.484;13.832;2023-12-07T02:20:57;92943.78;;;-2.62;100.00
12471;BME280;36499;46.484;13.832;2023-12-07T02:23:29;92928.41;;;-2.61;100.00
12471;BME280;36499;46.484;13.832;2023-12-07T02:26:09;92940.31;;;-2.61;100.00
12471;BME280;36499;46.484;13.832;2023-12-07T02:28:38;92936.53;;;-2.56;100.00
12471;BME280;36499;46.484;13.832;2023-12-07T02:31:05;92944.97;;;-2.55;100.00
12471;BME280;36499;46.484;13.832;2023-12-07T02:33:32;92937.22;;;-2.54;100.00
12471;BME280;36499;46.484;13.832;2023-12-07T02:35:59;92944.47;;;-2.60;100.00
12471;BME280;36499;46.484;13.832;2023-12-07T02:38:26;92945.72;;;-2.66;100.00
12471;BME280;36499;46.484;13.832;2023-12-07T02:40:55;92945.50;;;-2.63;100.00
12471;BME280;36499;46.484;13.832;2023-12-07T02:43:23;92947.84;;;-2.60;100.00
12471;BME280;36499;46.484;13.832;2023-12-07T02:45:51;92944.88;;;-2.54;100.00
12471;BME280;36499;46.484;13.832;2023-12-07T02:48:20;92952.81;;;-2.58;100.00
12471;BME280;36499;46.484;13.832;2023-12-07T02:50:47;92957.31;;;-2.62;100.00
12471;BME280;36499;46.484;13.832;2023-12-07T02:53:13;92956.88;;;-2.56;100.00
12471;BME280;36499;46.484;13.832;2023-12-07T02:55:40;92957.31;;;-2.62;100.00
12471;BME280;36499;46.484;13.832;2023-12-07T02:58:07;92955.41;;;-2.71;100.00
12471;BME280;36499;46.484;13.832;2023-12-07T03:00:34;92963.72;;;-2.69;100.00
12471;BME280;36499;46.484;13.832;2023-12-07T03:03:03;92958.97;;;-2.73;100.00
12471;BME280;36499;46.484;13.832;2023-12-07T03:05:30;92967.47;;;-2.86;100.00
12471;BME280;36499;46.484;13.832;2023-12-07T03:07:56;92965.25;;;-2.90;100.00
12471;BME280;36499;46.484;13.832;2023-12-07T03:10:23;92974.81;;;-2.94;100.00
12471;BME280;36499;46.484;13.832;2023-12-07T03:12:50;92974.00;;;-2.94;100.00
12471;BME280;36499;46.484;13.832;2023-12-07T03:15:17;92977.56;;;-2.97;100.00
12471;BME280;36499;46.484;13.832;2023-12-07T03:17:44;92982.44;;;-2.94;100.00
12471;BME280;36499;46.484;13.832;2023-12-07T03:20:12;92984.72;;;-2.78;100.00
12471;BME280;36499;46.484;13.832;2023-12-07T03:22:39;92983.84;;;-2.90;100.00
12471;BME280;36499;46.484;13.832;2023-12-07T03:25:07;92985.41;;;-2.76;100.00
12471;BME280;36499;46.484;13.832;2023-12-07T03:27:33;92988.66;;;-2.74;100.00
12471;BME280;36499;46.484;13.832;2023-12-07T03:30:00;92988.06;;;-2.77;100.00
12471;BME280;36499;46.484;13.832;2023-12-07T03:32:27;92989.47;;;-2.73;100.00
12471;BME280;36499;46.484;13.832;2023-12-07T03:34:54;92996.00;;;-2.82;100.00
12471;BME280;36499;46.484;13.832;2023-12-07T03:37:22;92984.34;;;-2.85;100.00
12471;BME280;36499;46.484;13.832;2023-12-07T03:39:49;93002.34;;;-2.88;100.00
12471;BME280;36499;46.484;13.832;2023-12-07T03:42:16;93000.50;;;-2.86;100.00
12471;BME280;36499;46.484;13.832;2023-12-07T03:44:43;93006.63;;;-2.88;100.00
12471;BME280;36499;46.484;13.832;2023-12-07T03:47:10;93010.09;;;-2.89;100.00
12471;BME280;36499;46.484;13.832;2023-12-07T03:49:37;93006.44;;;-2.98;100.00
12471;BME280;36499;46.484;13.832;2023-12-07T03:52:05;93018.13;;;-2.95;100.00
12471;BME280;36499;46.484;13.832;2023-12-07T03:54:33;93017.19;;;-2.94;100.00
12471;BME280;36499;46.484;13.832;2023-12-07T03:57:00;93018.81;;;-2.93;100.00
12471;BME280;36499;46.484;13.832;2023-12-07T03:59:27;93028.19;;;-2.94;100.00
12471;BME280;36499;46.484;13.832;2023-12-07T04:01:54;93025.69;;;-2.83;100.00
12471;BME280;36499;46.484;13.832;2023-12-07T04:04:21;93025.03;;;-2.85;100.00
12471;BME280;36499;46.484;13.832;2023-12-07T04:06:48;93027.97;;;-2.91;100.00
12471;BME280;36499;46.484;13.832;2023-12-07T04:09:14;93034.19;;;-2.95;100.00
12471;BME280;36499;46.484;13.832;2023-12-07T04:11:43;93033.88;;;-2.90;100.00
12471;BME280;36499;46.484;13.832;2023-12-07T04:14:11;93037.03;;;-2.87;100.00
12471;BME280;36499;46.484;13.832;2023-12-07T04:16:38;93039.16;;;-2.93;100.00
12471;BME280;36499;46.484;13.832;2023-12-07T04:19:05;93040.50;;;-3.00;100.00
12471;BME280;36499;46.484;13.832;2023-12-07T04:21:32;93040.09;;;-3.07;100.00
12471;BME280;36499;46.484;13.832;2023-12-07T04:23:58;93046.78;;;-3.06;100.00
12471;BME280;36499;46.484;13.832;2023-12-07T04:26:25;93047.31;;;-3.13;100.00
12471;BME280;36499;46.484;13.832;2023-12-07T04:28:54;93045.69;;;-3.15;100.00
12471;BME280;36499;46.484;13.832;2023-12-07T04:31:20;93048.00;;;-3.11;100.00
12471;BME280;36499;46.484;13.832;2023-12-07T04:33:47;93053.72;;;-3.08;100.00
12471;BME280;36499;46.484;13.832;2023-12-07T04:36:14;93049.25;;;-3.04;100.00
12471;BME280;36499;46.484;13.832;2023-12-07T04:38:41;93051.88;;;-3.06;100.00
12471;BME280;36499;46.484;13.832;2023-12-07T04:41:08;93051.97;;;-3.07;100.00
12471;BME280;36499;46.484;13.832;2023-12-07T04:43:35;93052.19;;;-3.10;100.00
12471;BME280;36499;46.484;13.832;2023-12-07T04:46:03;93063.16;;;-2.97;100.00
12471;BME280;36499;46.484;13.832;2023-12-07T04:48:30;93063.28;;;-2.99;100.00
12471;BME280;36499;46.484;13.832;2023-12-07T04:50:57;93060.22;;;-2.91;100.00
12471;BME280;36499;46.484;13.832;2023-12-07T04:53:24;93058.91;;;-2.97;100.00
12471;BME280;36499;46.484;13.832;2023-12-07T04:55:51;93057.66;;;-3.17;100.00
12471;BME280;36499;46.484;13.832;2023-12-07T04:58:18;93060.84;;;-3.26;100.00
12471;BME280;36499;46.484;13.832;2023-12-07T05:00:44;93062.56;;;-3.39;100.00
12471;BME280;36499;46.484;13.832;2023-12-07T05:03:13;93061.94;;;-3.42;100.00
12471;BME280;36499;46.484;13.832;2023-12-07T05:05:40;93069.25;;;-3.38;100.00
12471;BME280;36499;46.484;13.832;2023-12-07T05:08:07;93068.88;;;-3.32;100.00
12471;BME280;36499;46.484;13.832;2023-12-07T05:10:33;93074.97;;;-3.34;100.00
12471;BME280;36499;46.484;13.832;2023-12-07T05:13:00;93081.44;;;-3.43;100.00
12471;BME280;36499;46.484;13.832;2023-12-07T05:15:27;93081.97;;;-3.38;100.00
12471;BME280;36499;46.484;13.832;2023-12-07T05:17:54;93078.00;;;-3.42;100.00
12471;BME280;36499;46.484;13.832;2023-12-07T05:20:22;93080.53;;;-3.55;100.00
12471;BME280;36499;46.484;13.832;2023-12-07T05:22:49;93093.91;;;-3.53;100.00
12471;BME280;36499;46.484;13.832;2023-12-07T05:25:16;93088.56;;;-3.61;100.00
12471;BME280;36499;46.484;13.832;2023-12-07T05:27:44;93088.03;;;-3.53;100.00
12471;BME280;36499;46.484;13.832;2023-12-07T05:30:11;93091.09;;;-3.48;100.00
12471;BME280;36499;46.484;13.832;2023-12-07T05:32:38;93096.28;;;-3.50;100.00
12471;BME280;36499;46.484;13.832;2023-12-07T05:35:06;93096.59;;;-3.54;100.00
12471;BME280;36499;46.484;13.832;2023-12-07T05:37:34;93095.38;;;-3.36;100.00
12471;BME280;36499;46.484;13.832;2023-12-07T05:40:01;93097.28;;;-3.52;100.00
12471;BME280;36499;46.484;13.832;2023-12-07T05:42:28;93095.56;;;-3.52;100.00
12471;BME280;36499;46.484;13.832;2023-12-07T05:44:55;93106.44;;;-3.50;100.00
12471;BME280;36499;46.484;13.832;2023-12-07T05:47:22;93102.78;;;-3.58;100.00
12471;BME280;36499;46.484;13.832;2023-12-07T05:49:49;93114.03;;;-3.62;100.00
12471;BME280;36499;46.484;13.832;2023-12-07T05:52:16;93109.88;;;-3.63;100.00
12471;BME280;36499;46.484;13.832;2023-12-07T05:54:44;93104.69;;;-3.62;100.00
12471;BME280;36499;46.484;13.832;2023-12-07T05:57:12;93105.41;;;-3.60;100.00
12471;BME280;36499;46.484;13.832;2023-12-07T05:59:39;93107.44;;;-3.65;100.00
12471;BME280;36499;46.484;13.832;2023-12-07T06:02:07;93106.09;;;-3.70;100.00
12471;BME280;36499;46.484;13.832;2023-12-07T06:04:34;93111.97;;;-3.70;100.00
12471;BME280;36499;46.484;13.832;2023-12-07T06:07:00;93112.91;;;-3.71;100.00
12471;BME280;36499;46.484;13.832;2023-12-07T06:09:28;93118.59;;;-3.67;100.00
12471;BME280;36499;46.484;13.832;2023-12-07T06:11:56;93120.13;;;-3.65;100.00
12471;BME280;36499;46.484;13.832;2023-12-07T06:14:23;93118.97;;;-3.73;100.00
12471;BME280;36499;46.484;13.832;2023-12-07T06:16:50;93124.69;;;-3.70;100.00
12471;BME280;36499;46.484;13.832;2023-12-07T06:19:17;93129.13;;;-3.73;100.00
12471;BME280;36499;46.484;13.832;2023-12-07T06:21:44;93127.31;;;-3.71;100.00
12471;BME280;36499;46.484;13.832;2023-12-07T06:24:11;93132.38;;;-3.71;100.00
12471;BME280;36499;46.484;13.832;2023-12-07T06:26:39;93132.81;;;-3.65;100.00
12471;BME280;36499;46.484;13.832;2023-12-07T06:29:08;93131.28;;;-3.67;100.00
12471;BME280;36499;46.484;13.832;2023-12-07T06:31:34;93141.81;;;-3.73;100.00
12471;BME280;36499;46.484;13.832;2023-12-07T06:34:01;93141.50;;;-3.82;100.00
12471;BME280;36499;46.484;13.832;2023-12-07T06:36:28;93134.78;;;-3.83;100.00
12471;BME280;36499;46.484;13.832;2023-12-07T06:38:55;93140.06;;;-3.86;100.00
12471;BME280;36499;46.484;13.832;2023-12-07T06:41:22;93141.69;;;-3.85;100.00
12471;BME280;36499;46.484;13.832;2023-12-07T06:43:49;93136.59;;;-3.85;100.00
12471;BME280;36499;46.484;13.832;2023-12-07T06:46:17;93147.56;;;-3.84;100.00
12471;BME280;36499;46.484;13.832;2023-12-07T06:48:44;93146.03;;;-3.87;100.00
12471;BME280;36499;46.484;13.832;2023-12-07T06:51:11;93151.13;;;-3.87;100.00
12471;BME280;36499;46.484;13.832;2023-12-07T06:53:39;93152.75;;;-3.86;100.00
12471;BME280;36499;46.484;13.832;2023-12-07T06:56:07;93150.63;;;-3.79;100.00
12471;BME280;36499;46.484;13.832;2023-12-07T06:58:34;93151.34;;;-3.77;100.00
12471;BME280;36499;46.484;13.832;2023-12-07T07:01:01;93157.91;;;-3.87;100.00
12471;BME280;36499;46.484;13.832;2023-12-07T07:03:29;93161.16;;;-3.85;100.00
12471;BME280;36499;46.484;13.832;2023-12-07T07:05:56;93164.13;;;-3.91;100.00
12471;BME280;36499;46.484;13.832;2023-12-07T07:08:24;93160.75;;;-3.92;100.00
12471;BME280;36499;46.484;13.832;2023-12-07T07:10:51;93170.09;;;-3.92;100.00
12471;BME280;36499;46.484;13.832;2023-12-07T07:13:18;93173.97;;;-3.87;100.00
12471;BME280;36499;46.484;13.832;2023-12-07T07:15:46;93172.13;;;-3.85;100.00
12471;BME280;36499;46.484;13.832;2023-12-07T07:18:13;93165.69;;;-3.76;100.00
12471;BME280;36499;46.484;13.832;2023-12-07T07:20:42;93172.09;;;-3.70;100.00
12471;BME280;36499;46.484;13.832;2023-12-07T07:23:10;93166.94;;;-3.69;100.00
12471;BME280;36499;46.484;13.832;2023-12-07T07:25:37;93167.38;;;-3.62;100.00
12471;BME280;36499;46.484;13.832;2023-12-07T07:28:05;93171.25;;;-3.57;100.00
12471;BME280;36499;46.484;13.832;2023-12-07T07:30:33;93162.66;;;-3.68;100.00
12471;BME280;36499;46.484;13.832;2023-12-07T07:33:00;93169.81;;;-3.61;100.00
12471;BME280;36499;46.484;13.832;2023-12-07T07:35:27;93166.31;;;-3.72;100.00
12471;BME280;36499;46.484;13.832;2023-12-07T07:37:55;93162.03;;;-3.72;100.00
12471;BME280;36499;46.484;13.832;2023-12-07T07:40:22;93168.03;;;-3.73;100.00
12471;BME280;36499;46.484;13.832;2023-12-07T07:42:50;93178.25;;;-3.60;100.00
12471;BME280;36499;46.484;13.832;2023-12-07T07:45:17;93163.91;;;-3.61;100.00
12471;BME280;36499;46.484;13.832;2023-12-07T07:47:44;93161.84;;;-3.69;100.00
12471;BME280;36499;46.484;13.832;2023-12-07T07:50:11;93170.47;;;-3.71;100.00
12471;BME280;36499;46.484;13.832;2023-12-07T07:52:38;93163.25;;;-3.77;100.00
12471;BME280;36499;46.484;13.832;2023-12-07T07:55:07;93165.59;;;-3.74;100.00
12471;BME280;36499;46.484;13.832;2023-12-07T07:57:34;93171.66;;;-3.77;100.00
12471;BME280;36499;46.484;13.832;2023-12-07T08:00:01;93167.88;;;-3.84;100.00
12471;BME280;36499;46.484;13.832;2023-12-07T08:02:30;93177.38;;;-3.73;100.00
12471;BME280;36499;46.484;13.832;2023-12-07T08:04:57;93178.28;;;-3.74;100.00
12471;BME280;36499;46.484;13.832;2023-12-07T08:07:24;93182.97;;;-3.68;100.00
12471;BME280;36499;46.484;13.832;2023-12-07T08:09:51;93185.25;;;-3.64;100.00
12471;BME280;36499;46.484;13.832;2023-12-07T08:12:19;93184.66;;;-3.55;100.00
12471;BME280;36499;46.484;13.832;2023-12-07T08:14:48;93184.66;;;-3.55;100.00
12471;BME280;36499;46.484;13.832;2023-12-07T08:17:15;93186.97;;;-3.52;100.00
12471;BME280;36499;46.484;13.832;2023-12-07T08:19:42;93188.31;;;-3.46;100.00
12471;BME280;36499;46.484;13.832;2023-12-07T08:22:09;93178.25;;;-3.47;100.00
12471;BME280;36499;46.484;13.832;2023-12-07T08:24:36;93185.88;;;-3.47;100.00
12471;BME280;36499;46.484;13.832;2023-12-07T08:27:05;93191.28;;;-3.39;100.00
12471;BME280;36499;46.484;13.832;2023-12-07T08:29:33;93193.22;;;-3.43;100.00
12471;BME280;36499;46.484;13.832;2023-12-07T08:32:00;93190.56;;;-3.41;100.00
12471;BME280;36499;46.484;13.832;2023-12-07T08:34:27;93186.75;;;-3.34;100.00
12471;BME280;36499;46.484;13.832;2023-12-07T08:36:54;93190.63;;;-3.29;100.00
12471;BME280;36499;46.484;13.832;2023-12-07T08:39:20;93197.56;;;-3.45;100.00
12471;BME280;36499;46.484;13.832;2023-12-07T08:41:47;93198.69;;;-3.49;100.00
12471;BME280;36499;46.484;13.832;2023-12-07T08:44:14;93202.13;;;-3.50;100.00
12471;BME280;36499;46.484;13.832;2023-12-07T08:46:42;93202.22;;;-3.52;100.00
12471;BME280;36499;46.484;13.832;2023-12-07T08:49:10;93199.00;;;-3.54;100.00
12471;BME280;36499;46.484;13.832;2023-12-07T08:51:37;93202.44;;;-3.55;100.00
12471;BME280;36499;46.484;13.832;2023-12-07T08:54:04;93197.84;;;-3.50;100.00
12471;BME280;36499;46.484;13.832;2023-12-07T08:56:31;93200.91;;;-3.57;100.00
12471;BME280;36499;46.484;13.832;2023-12-07T08:58:58;93202.00;;;-3.61;100.00
12471;BME280;36499;46.484;13.832;2023-12-07T09:01:25;93208.72;;;-3.60;100.00
12471;BME280;36499;46.484;13.832;2023-12-07T09:03:54;93206.47;;;-3.52;100.00
12471;BME280;36499;46.484;13.832;2023-12-07T09:06:20;93204.66;;;-3.50;100.00
12471;BME280;36499;46.484;13.832;2023-12-07T09:08:47;93207.00;;;-3.47;100.00
12471;BME280;36499;46.484;13.832;2023-12-07T09:11:14;93211.09;;;-3.44;100.00
12471;BME280;36499;46.484;13.832;2023-12-07T09:13:41;93205.72;;;-3.40;100.00
12471;BME280;36499;46.484;13.832;2023-12-07T09:16:08;93207.88;;;-3.34;100.00
12471;BME280;36499;46.484;13.832;2023-12-07T09:18:35;93212.66;;;-3.29;100.00
12471;BME280;36499;46.484;13.832;2023-12-07T09:21:04;93204.66;;;-3.23;100.00
12471;BME280;36499;46.484;13.832;2023-12-07T09:23:31;93198.47;;;-3.19;100.00
12471;BME280;36499;46.484;13.832;2023-12-07T09:25:58;93202.94;;;-3.10;100.00
12471;BME280;36499;46.484;13.832;2023-12-07T09:28:24;93191.06;;;-2.97;100.00
12471;BME280;36499;46.484;13.832;2023-12-07T09:30:51;93196.59;;;-2.90;100.00
12471;BME280;36499;46.484;13.832;2023-12-07T09:33:18;93200.13;;;-2.80;100.00
12471;BME280;36499;46.484;13.832;2023-12-07T09:35:45;93196.38;;;-2.62;100.00
12471;BME280;36499;46.484;13.832;2023-12-07T09:38:14;93193.03;;;-2.62;100.00
12471;BME280;36499;46.484;13.832;2023-12-07T09:40:41;93186.31;;;-2.51;100.00
12471;BME280;36499;46.484;13.832;2023-12-07T09:43:07;93182.34;;;-2.55;100.00
12471;BME280;36499;46.484;13.832;2023-12-07T09:45:34;93176.66;;;-2.58;100.00
12471;BME280;36499;46.484;13.832;2023-12-07T09:48:01;93172.44;;;-2.47;100.00
12471;BME280;36499;46.484;13.832;2023-12-07T09:50:30;93170.50;;;-2.43;100.00
12471;BME280;36499;46.484;13.832;2023-12-07T09:52:57;93171.16;;;-2.52;100.00
12471;BME280;36499;46.484;13.832;2023-12-07T09:55:25;93161.75;;;-2.39;100.00
12471;BME280;36499;46.484;13.832;2023-12-07T09:57:52;93160.44;;;-2.44;100.00
12471;BME280;36499;46.484;13.832;2023-12-07T10:00:22;93150.16;;;-2.43;100.00
12471;BME280;36499;46.484;13.832;2023-12-07T10:02:49;93151.78;;;-2.42;100.00
12471;BME280;36499;46.484;13.832;2023-12-07T10:05:17;93151.78;;;-2.42;100.00
12471;BME280;36499;46.484;13.832;2023-12-07T10:07:45;93150.28;;;-2.57;100.00
12471;BME280;36499;46.484;13.832;2023-12-07T10:10:13;93154.34;;;-2.42;100.00
12471;BME280;36499;46.484;13.832;2023-12-07T10:12:46;93155.75;;;-2.38;100.00
12471;BME280;36499;46.484;13.832;2023-12-07T10:15:14;93154.63;;;-2.47;100.00
12471;BME280;36499;46.484;13.832;2023-12-07T10:17:46;93149.75;;;-2.37;100.00
12471;BME280;36499;46.484;13.832;2023-12-07T10:20:15;93151.78;;;-1.93;100.00
12471;BME280;36499;46.484;13.832;2023-12-07T10:22:42;93156.34;;;-1.61;100.00
12471;BME280;36499;46.484;13.832;2023-12-07T10:25:10;93150.47;;;-1.27;100.00
12471;BME280;36499;46.484;13.832;2023-12-07T10:27:39;93144.66;;;-0.83;100.00
12471;BME280;36499;46.484;13.832;2023-12-07T10:30:08;93141.19;;;-0.59;100.00
12471;BME280;36499;46.484;13.832;2023-12-07T10:32:37;93140.38;;;-0.26;100.00
12471;BME280;36499;46.484;13.832;2023-12-07T10:35:07;93136.41;;;0.03;100.00
12471;BME280;36499;46.484;13.832;2023-12-07T10:37:34;93128.75;;;0.03;100.00
12471;BME280;36499;46.484;13.832;2023-12-07T10:40:02;93126.47;;;0.32;100.00
12471;BME280;36499;46.484;13.832;2023-12-07T10:42:33;93123.53;;;0.48;100.00
12471;BME280;36499;46.484;13.832;2023-12-07T10:45:04;93122.81;;;0.99;100.00
12471;BME280;36499;46.484;13.832;2023-12-07T10:47:35;93118.50;;;0.99;100.00
12471;BME280;36499;46.484;13.832;2023-12-07T10:50:05;93115.78;;;1.12;100.00
12471;BME280;36499;46.484;13.832;2023-12-07T10:52:36;93115.25;;;1.39;100.00
12471;BME280;36499;46.484;13.832;2023-12-07T10:55:07;93114.41;;;1.59;99.33
12471;BME280;36499;46.484;13.832;2023-12-07T10:57:34;93120.53;;;1.77;97.36
12471;BME280;36499;46.484;13.832;2023-12-07T11:00:03;93111.44;;;1.94;97.02
12471;BME280;36499;46.484;13.832;2023-12-07T11:02:33;93117.53;;;2.12;94.84
12471;BME280;36499;46.484;13.832;2023-12-07T11:05:01;93113.63;;;2.18;92.88
12471;BME280;36499;46.484;13.832;2023-12-07T11:07:36;93117.59;;;2.32;90.79
12471;BME280;36499;46.484;13.832;2023-12-07T11:10:18;93108.28;;;2.31;91.67
12471;BME280;36499;46.484;13.832;2023-12-07T11:12:50;93103.81;;;2.23;93.14
12471;BME280;36499;46.484;13.832;2023-12-07T11:15:19;93106.63;;;2.20;90.51
12471;BME280;36499;46.484;13.832;2023-12-07T11:17:52;93102.94;;;2.03;88.70
12471;BME280;36499;46.484;13.832;2023-12-07T11:20:20;93103.53;;;1.76;87.76
12471;BME280;36499;46.484;13.832;2023-12-07T11:22:47;93098.44;;;1.46;88.43
12471;BME280;36499;46.484;13.832;2023-12-07T11:25:16;93100.59;;;1.20;87.64
12471;BME280;36499;46.484;13.832;2023-12-07T11:27:46;93105.59;;;1.01;88.72
12471;BME280;36499;46.484;13.832;2023-12-07T11:30:14;93102.78;;;1.04;90.33
12471;BME280;36499;46.484;13.832;2023-12-07T11:32:42;93097.47;;;1.16;92.74
12471;BME280;36499;46.484;13.832;2023-12-07T11:35:13;93100.47;;;1.01;92.28
12471;BME280;36499;46.484;13.832;2023-12-07T11:38:06;93097.63;;;0.94;92.05
12471;BME280;36499;46.484;13.832;2023-12-07T11:40:37;93098.97;;;0.77;93.07
12471;BME280;36499;46.484;13.832;2023-12-07T11:43:06;93101.28;;;1.01;94.21
12471;BME280;36499;46.484;13.832;2023-12-07T11:45:41;93102.53;;;1.07;95.86
12471;BME280;36499;46.484;13.832;2023-12-07T11:48:10;93094.16;;;1.26;95.46
12471;BME280;36499;46.484;13.832;2023-12-07T11:51:09;93098.00;;;1.71;92.43
12471;BME280;36499;46.484;13.832;2023-12-07T11:53:38;93102.84;;;1.74;90.98
12471;BME280;36499;46.484;13.832;2023-12-07T11:56:06;93094.34;;;1.74;89.05
12471;BME280;36499;46.484;13.832;2023-12-07T11:58:35;93095.53;;;2.10;86.69
12471;BME280;36499;46.484;13.832;2023-12-07T12:01:03;93098.75;;;1.93;84.80
12471;BME280;36499;46.484;13.832;2023-12-07T12:03:31;93094.03;;;1.58;85.92
12471;BME280;36499;46.484;13.832;2023-12-07T12:05:59;93089.50;;;1.31;85.15
12471;BME280;36499;46.484;13.832;2023-12-07T12:08:28;93092.91;;;0.99;88.94
12471;BME280;36499;46.484;13.832;2023-12-07T12:10:55;93091.81;;;0.92;90.83
12471;BME280;36499;46.484;13.832;2023-12-07T12:13:26;93083.91;;;0.95;88.58
12471;BME280;36499;46.484;13.832;2023-12-07T12:15:53;93082.34;;;0.83;89.37
12471;BME280;36499;46.484;13.832;2023-12-07T12:18:21;93085.38;;;0.77;90.50
12471;BME280;36499;46.484;13.832;2023-12-07T12:20:50;93084.69;;;0.54;90.19
12471;BME280;36499;46.484;13.832;2023-12-07T12:23:17;93086.22;;;0.45;91.00
12471;BME280;36499;46.484;13.832;2023-12-07T12:25:47;93082.75;;;0.03;91.75
12471;BME280;36499;46.484;13.832;2023-12-07T12:28:16;93084.16;;;-0.04;92.33
12471;BME280;36499;46.484;13.832;2023-12-07T12:30:44;93091.19;;;-0.39;92.72
12471;BME280;36499;46.484;13.832;2023-12-07T12:33:13;93097.00;;;-0.60;95.84
12471;BME280;36499;46.484;13.832;2023-12-07T12:35:40;93094.00;;;-0.54;95.34
12471;BME280;36499;46.484;13.832;2023-12-07T12:38:09;93093.66;;;-0.49;95.76
12471;BME280;36499;46.484;13.832;2023-12-07T12:40:37;93096.56;;;-0.54;96.20
12471;BME280;36499;46.484;13.832;2023-12-07T12:43:05;93098.53;;;-0.57;96.17
12471;BME280;36499;46.484;13.832;2023-12-07T12:45:33;93105.00;;;-0.64;96.53